Time;durP1;ratioP1;P1;durP2;ratioP2;P2;SDS_P1;SDS_P2;PMS_P1;PMS_P2;Temp;Humidity;BMP_temperature;BMP_pressure;BME280_temperature;BME280_humidity;BME280_pressure;Samples;Min_cycle;Max_cycle;Signal;HPM_P1;HPM_P2
2021/07/27 00:01:10;;;;;;;3.38;2.40;;;18.70;99.90;;;;;;5024265;28;20220;-73
2021/07/27 00:03:38;;;;;;;5.60;2.75;;;18.80;99.90;;;;;;5018299;28;20200;-73
2021/07/27 00:06:06;;;;;;;4.10;2.80;;;18.80;99.90;;;;;;5025743;28;20643;-73
2021/07/27 00:08:35;;;;;;;5.10;2.47;;;18.70;99.90;;;;;;5023752;28;20662;-74
2021/07/27 00:11:02;;;;;;;3.08;2.60;;;18.70;99.90;;;;;;5027557;28;20238;-73
2021/07/27 00:13:31;;;;;;;4.60;2.67;;;18.80;99.90;;;;;;5023516;28;20601;-73
2021/07/27 00:15:58;;;;;;;2.88;2.58;;;18.60;99.90;;;;;;5023976;28;20196;-73
2021/07/27 00:18:25;;;;;;;4.13;2.50;;;18.50;99.90;;;;;;5020561;28;20254;-73
2021/07/27 00:20:52;;;;;;;2.70;2.45;;;18.60;99.90;;;;;;5023547;28;20309;-73
2021/07/27 00:23:19;;;;;;;3.15;2.60;;;18.50;99.90;;;;;;5018279;28;20211;-73
2021/07/27 00:25:48;;;;;;;3.40;2.35;;;18.40;99.90;;;;;;5024575;28;20207;-73
2021/07/27 00:28:15;;;;;;;3.92;2.50;;;18.40;99.90;;;;;;5023539;28;20239;-73
2021/07/27 00:30:43;;;;;;;2.47;2.28;;;18.50;99.90;;;;;;5028970;28;20208;-73
2021/07/27 00:33:10;;;;;;;3.47;2.80;;;18.40;99.90;;;;;;5025717;28;20568;-73
2021/07/27 00:35:37;;;;;;;4.63;2.78;;;18.40;99.90;;;;;;5028198;28;20614;-73
2021/07/27 00:38:12;;;;;;;3.65;2.70;;;18.50;99.90;;;;;;5024566;28;20204;-73
2021/07/27 00:40:41;;;;;;;3.58;2.72;;;18.20;99.90;;;;;;5022249;28;20227;-73
2021/07/27 00:43:11;;;;;;;4.85;2.40;;;18.20;99.90;;;;;;5022478;28;20265;-73
2021/07/27 00:45:39;;;;;;;3.63;2.70;;;18.20;99.90;;;;;;5026452;28;20741;-73
2021/07/27 00:48:08;;;;;;;3.20;2.90;;;18.20;99.90;;;;;;5027079;28;20223;-73
2021/07/27 00:50:35;;;;;;;4.32;2.63;;;18.20;99.90;;;;;;5026595;28;20650;-73
2021/07/27 00:53:04;;;;;;;3.85;2.65;;;18.10;99.90;;;;;;5029186;28;20537;-73
2021/07/27 00:55:33;;;;;;;3.20;2.90;;;18.10;99.90;;;;;;5020423;28;20212;-73
2021/07/27 00:58:00;;;;;;;5.22;2.90;;;18.10;99.90;;;;;;5027498;28;20238;-73
2021/07/27 01:00:28;;;;;;;4.75;2.83;;;18.00;99.90;;;;;;5020945;28;20266;-73
2021/07/27 01:02:55;;;;;;;4.38;2.75;;;18.10;99.90;;;;;;5026442;28;20231;-69
2021/07/27 01:05:26;;;;;;;4.53;2.80;;;18.30;99.90;;;;;;5026652;28;20204;-68
2021/07/27 01:07:54;;;;;;;5.15;2.75;;;18.30;99.90;;;;;;5022802;28;20204;-69
2021/07/27 01:10:20;;;;;;;5.60;2.40;;;18.30;99.90;;;;;;5025681;28;20240;-68
2021/07/27 01:12:49;;;;;;;5.50;3.55;;;18.30;99.90;;;;;;5024396;28;20246;-69
2021/07/27 01:15:17;;;;;;;5.28;3.03;;;18.20;99.90;;;;;;5028266;28;20258;-69
2021/07/27 01:17:45;;;;;;;4.90;2.97;;;18.20;99.90;;;;;;5024327;28;20203;-69
2021/07/27 01:20:25;;;;;;;3.42;2.80;;;18.20;99.90;;;;;;5082913;22;20315;-68
2021/07/27 01:39:26;;;;;;;5.43;3.10;;;18.10;99.90;;;;;;4991865;28;20561;-68
2021/07/27 01:42:10;;;;;;;5.45;3.08;;;17.90;99.90;;;;;;4997485;28;20224;-68
2021/07/27 01:44:44;;;;;;;4.70;2.67;;;18.00;99.90;;;;;;4997812;28;20215;-68
2021/07/27 01:47:13;;;;;;;3.42;2.80;;;17.90;99.90;;;;;;5002387;28;20205;-68
2021/07/27 01:49:41;;;;;;;4.07;2.80;;;17.80;99.90;;;;;;5010539;28;20204;-68
2021/07/27 01:52:12;;;;;;;4.07;2.90;;;17.90;99.90;;;;;;5002046;28;20212;-68
2021/07/27 01:54:55;;;;;;;6.13;3.38;;;18.00;99.90;;;;;;5002645;28;20211;-68
2021/07/27 01:57:24;;;;;;;4.63;2.95;;;18.00;99.90;;;;;;5004832;28;20248;-68
2021/07/27 02:00:02;;;;;;;3.42;2.83;;;18.00;99.90;;;;;;5001132;28;20212;-68
2021/07/27 02:02:29;;;;;;;8.15;3.13;;;18.00;99.90;;;;;;5000447;28;20229;-68
2021/07/27 02:04:56;;;;;;;6.95;3.58;;;18.10;99.90;;;;;;4992240;28;20227;-68
2021/07/27 02:07:23;;;;;;;5.15;2.90;;;18.00;99.90;;;;;;5008483;28;20207;-68
2021/07/27 02:09:58;;;;;;;6.05;3.00;;;18.10;99.90;;;;;;4998182;28;20205;-68
2021/07/27 02:12:30;;;;;;;5.75;3.35;;;18.10;99.90;;;;;;4994773;28;20698;-68
2021/07/27 02:15:05;;;;;;;3.40;3.10;;;18.10;99.90;;;;;;4994679;28;20204;-68
2021/07/27 02:17:32;;;;;;;6.20;3.05;;;18.20;99.90;;;;;;5004946;28;20215;-68
2021/07/27 02:20:00;;;;;;;4.50;3.30;;;18.20;99.90;;;;;;5007699;28;20197;-68
2021/07/27 02:22:27;;;;;;;3.35;3.05;;;18.30;99.90;;;;;;5001097;28;20220;-68
2021/07/27 02:24:55;;;;;;;3.28;2.97;;;18.30;99.90;;;;;;5002036;28;20202;-68
2021/07/27 02:27:22;;;;;;;4.93;3.15;;;18.30;99.90;;;;;;5003413;28;20201;-68
2021/07/27 02:29:49;;;;;;;7.28;3.20;;;18.20;99.90;;;;;;5000182;28;20298;-68
2021/07/27 02:32:16;;;;;;;5.95;3.10;;;18.10;99.90;;;;;;5000315;28;20196;-68
2021/07/27 02:34:43;;;;;;;4.03;3.30;;;18.20;99.90;;;;;;4997392;28;20577;-68
2021/07/27 02:37:10;;;;;;;5.38;3.67;;;18.10;99.90;;;;;;4996435;28;20215;-68
2021/07/27 02:39:36;;;;;;;7.40;4.05;;;18.20;99.90;;;;;;4997363;28;20205;-68
2021/07/27 02:42:05;;;;;;;6.53;4.10;;;18.30;99.90;;;;;;4997165;28;20225;-68
2021/07/27 02:44:32;;;;;;;5.07;3.55;;;18.30;99.90;;;;;;5006692;28;20204;-68
2021/07/27 02:46:59;;;;;;;5.82;4.00;;;18.20;99.90;;;;;;4997127;28;20569;-68
2021/07/27 02:49:25;;;;;;;6.07;3.63;;;18.10;99.90;;;;;;5006365;28;20204;-71
2021/07/27 02:51:53;;;;;;;5.60;3.72;;;18.10;99.90;;;;;;4996804;28;20201;-72
2021/07/27 02:54:19;;;;;;;8.73;3.90;;;18.10;99.90;;;;;;4995332;28;20204;-71
2021/07/27 02:56:46;;;;;;;5.57;3.50;;;18.10;99.90;;;;;;4996804;28;20659;-72
2021/07/27 02:59:14;;;;;;;6.68;3.65;;;18.10;99.90;;;;;;5005392;28;20207;-67
2021/07/27 03:01:41;;;;;;;5.28;3.60;;;18.10;99.90;;;;;;5006721;28;20238;-68
2021/07/27 03:04:08;;;;;;;7.15;4.25;;;18.10;99.90;;;;;;4999359;28;20200;-68
2021/07/27 03:06:35;;;;;;;5.22;3.65;;;18.10;99.90;;;;;;4999671;28;20591;-68
2021/07/27 03:09:15;;;;;;;6.97;4.07;;;18.30;99.90;;;;;;4998851;28;20209;-68
2021/07/27 03:11:42;;;;;;;6.25;4.05;;;18.40;99.90;;;;;;5000918;28;20205;-68
2021/07/27 03:14:10;;;;;;;10.05;4.35;;;18.40;99.90;;;;;;4996121;28;20205;-67
2021/07/27 03:16:38;;;;;;;5.70;4.15;;;18.50;99.90;;;;;;5002823;28;20684;-68
2021/07/27 03:19:05;;;;;;;5.35;3.92;;;18.40;99.90;;;;;;4994462;28;20639;-68
2021/07/27 03:21:32;;;;;;;6.45;3.70;;;18.50;99.90;;;;;;5004308;28;20232;-68
2021/07/27 03:23:59;;;;;;;12.07;4.20;;;18.50;99.90;;;;;;5000890;28;20262;-68
2021/07/27 03:26:26;;;;;;;4.05;3.58;;;18.50;99.90;;;;;;4998678;28;20215;-67
2021/07/27 03:28:53;;;;;;;6.90;3.90;;;18.40;99.90;;;;;;5012365;28;20196;-68
2021/07/27 03:31:20;;;;;;;7.45;3.70;;;18.30;99.90;;;;;;5002229;28;20678;-67
2021/07/27 03:33:48;;;;;;;7.93;4.18;;;18.30;99.90;;;;;;4999776;28;20200;-67
2021/07/27 03:36:15;;;;;;;8.73;4.03;;;18.30;99.90;;;;;;5002125;28;20210;-68
2021/07/27 03:38:42;;;;;;;10.07;4.10;;;18.10;99.90;;;;;;4999854;28;20207;-68
2021/07/27 03:41:10;;;;;;;7.75;4.18;;;18.20;99.90;;;;;;5001942;28;20592;-68
2021/07/27 03:43:37;;;;;;;9.13;3.80;;;18.10;99.90;;;;;;4997954;28;20209;-67
2021/07/27 03:46:04;;;;;;;5.28;3.67;;;18.10;99.90;;;;;;4994186;28;20639;-68
2021/07/27 03:48:31;;;;;;;5.50;3.85;;;18.10;99.90;;;;;;4994698;28;20204;-68
2021/07/27 03:50:59;;;;;;;9.43;4.53;;;18.00;99.90;;;;;;4993691;28;20590;-67
2021/07/27 03:53:26;;;;;;;6.32;4.22;;;18.00;99.90;;;;;;5011093;28;20200;-68
2021/07/27 03:55:53;;;;;;;7.57;4.22;;;18.10;99.90;;;;;;4997000;28;20641;-68
2021/07/27 03:58:20;;;;;;;6.75;4.20;;;18.00;99.90;;;;;;4996910;28;20208;-67
2021/07/27 04:00:47;;;;;;;6.95;4.43;;;18.00;99.90;;;;;;5004848;28;20550;-67
2021/07/27 04:03:14;;;;;;;7.05;3.97;;;18.00;99.90;;;;;;4998390;28;20217;-68
2021/07/27 04:05:43;;;;;;;6.65;4.10;;;18.00;99.90;;;;;;5000134;28;20606;-68
2021/07/27 04:08:11;;;;;;;9.85;4.55;;;18.00;99.90;;;;;;4999195;28;20204;-68
2021/07/27 04:10:38;;;;;;;7.60;4.25;;;17.90;99.90;;;;;;5001835;28;20206;-69
2021/07/27 04:13:05;;;;;;;7.53;4.25;;;17.80;99.90;;;;;;5000431;28;20212;-67
2021/07/27 04:15:41;;;;;;;8.07;4.90;;;17.80;99.90;;;;;;5003556;28;20212;-67
2021/07/27 04:18:08;;;;;;;6.65;3.97;;;17.80;99.90;;;;;;4999640;28;20201;-67
2021/07/27 04:20:35;;;;;;;8.88;4.57;;;17.80;99.90;;;;;;4994156;28;20639;-68
2021/07/27 04:23:02;;;;;;;5.20;3.92;;;17.80;99.90;;;;;;4996701;28;20235;-67
2021/07/27 04:25:31;;;;;;;8.77;4.53;;;17.90;99.90;;;;;;4993786;28;20584;-68
2021/07/27 04:27:58;;;;;;;7.25;4.40;;;17.80;99.90;;;;;;5005819;28;20250;-67
2021/07/27 04:30:25;;;;;;;4.68;3.80;;;17.70;99.90;;;;;;5006184;28;20656;-68
2021/07/27 04:32:52;;;;;;;7.10;4.68;;;17.80;99.90;;;;;;5001055;28;20579;-67
2021/07/27 04:35:19;;;;;;;9.77;5.15;;;17.70;99.90;;;;;;4997326;28;20659;-67
2021/07/27 04:37:46;;;;;;;6.15;4.07;;;17.70;99.90;;;;;;5009280;28;20635;-67
2021/07/27 04:40:14;;;;;;;9.48;4.45;;;17.90;99.90;;;;;;5011646;28;20717;-67
2021/07/27 04:42:43;;;;;;;6.72;4.18;;;17.80;99.90;;;;;;5001654;28;20223;-67
2021/07/27 04:45:10;;;;;;;9.73;4.43;;;17.90;99.90;;;;;;5002523;28;20201;-67
2021/07/27 04:47:37;;;;;;;6.90;4.40;;;17.90;99.90;;;;;;5000269;28;20211;-67
2021/07/27 04:50:05;;;;;;;6.00;4.80;;;18.00;99.90;;;;;;5000396;28;20207;-67
2021/07/27 04:52:32;;;;;;;7.65;4.72;;;17.90;99.90;;;;;;5001143;28;20662;-67
2021/07/27 04:54:59;;;;;;;9.15;4.50;;;18.00;99.90;;;;;;4997994;28;20205;-67
2021/07/27 04:57:26;;;;;;;23.15;15.75;;;18.10;99.90;;;;;;5009211;28;20203;-68
2021/07/27 04:59:54;;;;;;;7.32;4.90;;;18.20;99.90;;;;;;4996287;28;20207;-69
2021/07/27 05:02:22;;;;;;;7.72;5.05;;;18.50;99.90;;;;;;5001758;28;20233;-69
2021/07/27 05:04:49;;;;;;;9.55;4.20;;;18.50;99.90;;;;;;4997114;28;20204;-68
2021/07/27 05:07:16;;;;;;;5.15;4.40;;;18.50;99.90;;;;;;4997633;28;20693;-69
2021/07/27 05:09:42;;;;;;;6.25;4.68;;;18.50;99.90;;;;;;5000627;28;20204;-69
2021/07/27 05:12:09;;;;;;;7.97;4.55;;;18.40;99.90;;;;;;5002149;28;20207;-70
2021/07/27 05:14:36;;;;;;;6.15;4.65;;;18.50;99.90;;;;;;4992529;28;20654;-68
2021/07/27 05:17:12;;;;;;;7.57;4.70;;;18.50;99.90;;;;;;5005049;28;20202;-69
2021/07/27 05:19:50;;;;;;;7.90;5.00;;;18.60;99.90;;;;;;4995573;28;20200;-69
2021/07/27 05:22:17;;;;;;;7.18;4.75;;;18.70;99.90;;;;;;4999651;28;20641;-69
2021/07/27 05:24:44;;;;;;;7.43;4.95;;;18.80;99.90;;;;;;4994619;28;20563;-69
2021/07/27 05:27:11;;;;;;;8.32;4.88;;;18.90;99.90;;;;;;5010682;28;20208;-69
2021/07/27 05:29:38;;;;;;;7.13;4.60;;;19.10;99.90;;;;;;5013083;28;20247;-68
2021/07/27 05:32:06;;;;;;;6.32;4.18;;;19.20;99.90;;;;;;5002966;28;20200;-68
2021/07/27 05:34:34;;;;;;;7.88;4.78;;;19.30;99.90;;;;;;4994738;28;20207;-69
2021/07/27 05:37:00;;;;;;;5.75;4.50;;;19.40;99.90;;;;;;4993720;28;20203;-68
2021/07/27 05:39:27;;;;;;;9.68;4.88;;;19.40;99.90;;;;;;4996837;28;20205;-69
2021/07/27 05:41:54;;;;;;;8.00;4.88;;;19.60;99.90;;;;;;4998490;28;20221;-69
2021/07/27 05:44:24;;;;;;;7.13;5.70;;;19.60;99.90;;;;;;5008117;28;20693;-69
2021/07/27 05:46:52;;;;;;;7.60;4.90;;;19.70;99.90;;;;;;5011807;28;20200;-69
2021/07/27 05:49:20;;;;;;;6.55;4.75;;;19.70;99.90;;;;;;5011143;28;20275;-69
2021/07/27 05:51:48;;;;;;;6.18;4.43;;;19.90;99.90;;;;;;4998320;28;20200;-69
2021/07/27 05:54:15;;;;;;;6.63;4.80;;;19.90;99.90;;;;;;5012081;28;20196;-69
2021/07/27 05:56:42;;;;;;;6.35;4.18;;;19.80;99.90;;;;;;5000510;28;20215;-69
2021/07/27 05:59:09;;;;;;;8.80;4.38;;;19.80;99.90;;;;;;5002965;28;20668;-69
2021/07/27 06:01:35;;;;;;;6.05;4.20;;;19.90;99.90;;;;;;4997480;28;20575;-69
2021/07/27 06:04:02;;;;;;;7.20;4.53;;;19.80;99.90;;;;;;5015727;28;20726;-72
2021/07/27 06:06:32;;;;;;;7.35;4.55;;;19.80;99.90;;;;;;5011566;28;20207;-69
2021/07/27 06:09:03;;;;;;;6.07;4.30;;;19.90;99.90;;;;;;4996904;28;20255;-69
2021/07/27 06:11:29;;;;;;;6.78;4.30;;;19.90;99.90;;;;;;4994333;28;20295;-69
2021/07/27 06:13:56;;;;;;;8.07;4.53;;;19.90;99.90;;;;;;5013242;28;20670;-69
2021/07/27 06:16:23;;;;;;;8.10;4.32;;;19.70;99.90;;;;;;5011690;28;20213;-69
2021/07/27 06:18:50;;;;;;;10.02;4.22;;;19.90;99.90;;;;;;5012860;28;20196;-69
2021/07/27 06:21:17;;;;;;;7.10;4.30;;;20.00;99.90;;;;;;5012744;28;20689;-69
2021/07/27 06:23:45;;;;;;;15.38;5.63;;;20.00;99.90;;;;;;5008381;28;20686;-69
2021/07/27 06:26:14;;;;;;;6.95;5.00;;;20.00;99.90;;;;;;5005543;28;20196;-69
2021/07/27 06:28:41;;;;;;;7.40;5.13;;;20.00;99.90;;;;;;5022550;28;20295;-74
2021/07/27 06:31:11;;;;;;;6.22;5.25;;;19.80;99.90;;;;;;5023196;28;20200;-69
2021/07/27 06:33:39;;;;;;;8.10;5.40;;;20.00;99.90;;;;;;5004404;28;20196;-69
2021/07/27 06:36:06;;;;;;;7.68;5.65;;;20.30;99.90;;;;;;5005548;28;20208;-69
2021/07/27 06:38:33;;;;;;;9.13;5.13;;;20.10;99.90;;;;;;5005022;28;20204;-69
2021/07/27 06:41:00;;;;;;;8.93;6.05;;;20.10;99.90;;;;;;5006608;28;20197;-69
2021/07/27 06:43:28;;;;;;;9.20;5.88;;;20.10;99.90;;;;;;5007554;28;20229;-69
2021/07/27 06:45:55;;;;;;;6.22;5.15;;;20.10;99.90;;;;;;5007081;28;20567;-69
2021/07/27 06:48:22;;;;;;;7.55;5.25;;;20.20;99.90;;;;;;5008968;28;20215;-69
2021/07/27 06:50:50;;;;;;;7.35;5.75;;;20.10;99.90;;;;;;5003449;28;20201;-69
2021/07/27 06:53:17;;;;;;;7.97;5.57;;;20.30;99.90;;;;;;5002931;28;20613;-69
2021/07/27 06:55:43;;;;;;;7.75;5.75;;;20.10;99.90;;;;;;4994609;28;20207;-69
2021/07/27 06:58:10;;;;;;;7.10;5.68;;;20.40;99.90;;;;;;5010234;28;20212;-69
2021/07/27 07:00:39;;;;;;;9.75;6.50;;;20.40;99.90;;;;;;4994407;28;20213;-69
2021/07/27 07:03:06;;;;;;;10.73;6.10;;;20.30;99.90;;;;;;4996185;28;20280;-69
2021/07/27 07:05:33;;;;;;;6.82;5.15;;;20.40;99.90;;;;;;4998798;28;20630;-69
2021/07/27 07:08:00;;;;;;;6.05;4.90;;;20.50;99.90;;;;;;5010657;28;21007;-69
2021/07/27 07:10:27;;;;;;;12.00;5.57;;;20.60;99.90;;;;;;4994785;28;20197;-69
2021/07/27 07:12:54;;;;;;;6.15;4.80;;;20.50;99.90;;;;;;5008216;28;20615;-69
2021/07/27 07:15:21;;;;;;;7.25;5.70;;;20.60;99.90;;;;;;5013573;28;20214;-69
2021/07/27 07:17:49;;;;;;;6.85;5.43;;;20.70;99.90;;;;;;5011732;28;20654;-69
2021/07/27 07:20:17;;;;;;;7.97;5.53;;;20.60;99.90;;;;;;5027737;22;20210;-70
2021/07/27 07:22:43;;;;;;;10.52;7.07;;;20.70;99.90;;;;;;4992990;28;20228;-71
2021/07/27 07:25:11;;;;;;;7.90;6.18;;;20.70;99.90;;;;;;4992617;28;20308;-70
2021/07/27 07:27:38;;;;;;;7.57;6.53;;;20.70;99.90;;;;;;4985619;28;20666;-72
2021/07/27 07:30:06;;;;;;;9.95;5.97;;;20.80;99.90;;;;;;4988003;28;20209;-71
2021/07/27 07:32:32;;;;;;;9.73;6.13;;;20.80;99.90;;;;;;4990006;28;20204;-71
2021/07/27 07:35:03;;;;;;;7.97;6.75;;;21.10;99.90;;;;;;4989655;28;20246;-71
2021/07/27 07:37:29;;;;;;;8.10;6.30;;;21.10;99.90;;;;;;4990406;28;20204;-71
2021/07/27 07:39:56;;;;;;;10.35;6.65;;;21.30;99.90;;;;;;4988251;28;20216;-71
2021/07/27 07:42:23;;;;;;;7.93;6.18;;;21.60;99.90;;;;;;4988891;28;20596;-71
2021/07/27 07:44:50;;;;;;;7.45;6.07;;;21.50;99.90;;;;;;4984748;28;20202;-69
2021/07/27 07:47:16;;;;;;;8.85;6.55;;;21.60;99.90;;;;;;4985682;28;20228;-75
2021/07/27 07:49:43;;;;;;;9.00;6.40;;;21.50;99.90;;;;;;4985989;28;20667;-71
2021/07/27 07:52:11;;;;;;;7.78;5.97;;;21.60;99.90;;;;;;4987208;28;20209;-71
2021/07/27 07:54:38;;;;;;;7.85;5.57;;;21.40;99.90;;;;;;4990078;28;20575;-71
2021/07/27 07:57:05;;;;;;;7.00;5.82;;;21.30;99.90;;;;;;4983945;28;20625;-69
2021/07/27 07:59:32;;;;;;;8.25;5.35;;;21.40;99.90;;;;;;4985373;28;20678;-71
2021/07/27 08:01:59;;;;;;;7.68;6.00;;;21.30;99.90;;;;;;4984913;28;20205;-71
2021/07/27 08:04:26;;;;;;;7.18;5.13;;;21.40;99.90;;;;;;4986924;28;20239;-73
2021/07/27 08:06:53;;;;;;;9.02;5.13;;;21.30;99.90;;;;;;4988104;28;20212;-67
2021/07/27 08:09:21;;;;;;;6.47;5.22;;;21.20;99.90;;;;;;4990302;28;20201;-66
2021/07/27 08:11:48;;;;;;;6.30;5.38;;;21.30;99.90;;;;;;4986630;28;20211;-74
2021/07/27 08:14:15;;;;;;;6.75;5.25;;;21.50;99.90;;;;;;4988828;28;20656;-71
2021/07/27 08:16:42;;;;;;;5.20;4.65;;;21.60;99.90;;;;;;4986523;28;20210;-73
2021/07/27 08:19:09;;;;;;;15.18;9.68;;;21.70;99.90;;;;;;4988268;28;20225;-69
2021/07/27 08:21:36;;;;;;;6.20;5.07;;;21.80;99.90;;;;;;4988140;28;20236;-69
2021/07/27 08:24:03;;;;;;;6.35;5.55;;;21.70;99.90;;;;;;4986519;28;20695;-69
2021/07/27 08:26:31;;;;;;;6.32;5.25;;;21.50;99.90;;;;;;4986946;28;20213;-69
2021/07/27 08:28:58;;;;;;;9.65;5.82;;;21.50;99.90;;;;;;4983700;28;20227;-70
2021/07/27 08:31:25;;;;;;;6.90;5.65;;;21.50;99.90;;;;;;4987706;28;20307;-69
2021/07/27 08:33:52;;;;;;;6.03;5.38;;;21.60;99.90;;;;;;4984346;28;20302;-69
2021/07/27 08:36:19;;;;;;;6.13;5.53;;;21.70;99.90;;;;;;4983121;28;20215;-69
2021/07/27 08:38:45;;;;;;;7.63;5.53;;;22.00;99.90;;;;;;4985859;28;20211;-69
2021/07/27 08:41:17;;;;;;;6.78;5.22;;;22.30;99.90;;;;;;4985487;28;20321;-70
2021/07/27 08:43:45;;;;;;;6.53;4.80;;;22.40;99.90;;;;;;4984082;28;20224;-70
2021/07/27 08:46:16;;;;;;;7.85;5.80;;;22.50;99.90;;;;;;4986412;28;20791;-69
2021/07/27 08:48:43;;;;;;;5.60;5.10;;;22.30;99.90;;;;;;4982286;28;20660;-70
2021/07/27 08:51:10;;;;;;;7.22;5.30;;;21.90;99.90;;;;;;4984179;28;20798;-70
2021/07/27 08:53:37;;;;;;;6.05;5.47;;;21.80;99.90;;;;;;4984497;28;20217;-69
2021/07/27 08:56:04;;;;;;;7.20;5.53;;;21.90;99.90;;;;;;4981781;28;20578;-69
2021/07/27 08:58:31;;;;;;;5.90;5.30;;;22.30;99.90;;;;;;4981401;28;20212;-70
2021/07/27 09:00:59;;;;;;;6.53;5.50;;;22.40;99.90;;;;;;4979032;28;20205;-70
2021/07/27 09:03:28;;;;;;;6.88;6.15;;;22.40;99.90;;;;;;4977820;28;20230;-69
2021/07/27 09:06:04;;;;;;;8.32;5.88;;;22.60;99.90;;;;;;4979363;28;20256;-69
2021/07/27 09:08:31;;;;;;;9.65;5.97;;;22.70;99.90;;;;;;4983058;28;20596;-70
2021/07/27 09:11:00;;;;;;;7.80;6.05;;;22.70;99.90;;;;;;4979784;28;20684;-69
2021/07/27 09:13:32;;;;;;;6.97;5.50;;;22.40;99.90;;;;;;4979726;28;20209;-69
2021/07/27 09:16:01;;;;;;;9.88;5.80;;;22.20;99.90;;;;;;4977833;28;20215;-70
2021/07/27 09:18:30;;;;;;;7.88;6.00;;;22.10;99.90;;;;;;4980927;28;20212;-69
2021/07/27 09:20:58;;;;;;;7.07;5.53;;;22.00;99.90;;;;;;4983511;28;20686;-69
2021/07/27 09:23:28;;;;;;;6.97;5.30;;;22.40;99.90;;;;;;4986489;28;20233;-69
2021/07/27 09:25:56;;;;;;;6.90;5.53;;;23.00;99.90;;;;;;4989085;28;20208;-70
2021/07/27 09:28:24;;;;;;;6.82;5.10;;;23.20;99.90;;;;;;4989298;28;20582;-70
2021/07/27 09:30:57;;;;;;;6.60;5.50;;;24.00;99.90;;;;;;4989554;28;20697;-70
2021/07/27 09:33:32;;;;;;;7.18;5.82;;;23.50;99.90;;;;;;4990072;28;20205;-69
2021/07/27 09:35:59;;;;;;;7.82;5.45;;;23.30;99.90;;;;;;4990622;28;20219;-70
2021/07/27 09:38:31;;;;;;;7.22;5.75;;;23.30;99.90;;;;;;4991749;28;20205;-70
2021/07/27 09:41:00;;;;;;;6.10;4.93;;;23.80;99.90;;;;;;4987826;28;20216;-70
2021/07/27 09:43:28;;;;;;;12.15;10.60;;;23.90;99.90;;;;;;4985714;28;20233;-70
2021/07/27 09:45:56;;;;;;;6.72;5.60;;;23.90;99.90;;;;;;4989197;28;20211;-70
2021/07/27 09:48:26;;;;;;;10.00;5.50;;;23.70;99.90;;;;;;4984186;28;20420;-69
2021/07/27 09:50:55;;;;;;;5.80;5.20;;;23.70;99.90;;;;;;4988259;28;20220;-70
2021/07/27 09:53:23;;;;;;;7.32;5.57;;;23.90;99.90;;;;;;4987659;28;20208;-70
2021/07/27 09:55:50;;;;;;;6.30;5.63;;;23.50;99.90;;;;;;4979488;28;20210;-69
2021/07/27 09:58:17;;;;;;;7.63;5.35;;;23.70;99.90;;;;;;4988865;28;20205;-70
2021/07/27 10:00:51;;;;;;;5.88;5.28;;;23.90;99.90;;;;;;4985723;28;20213;-70
2021/07/27 10:03:22;;;;;;;6.97;5.30;;;23.80;99.90;;;;;;4987314;28;20232;-70
2021/07/27 10:05:54;;;;;;;5.60;5.10;;;23.40;99.90;;;;;;4986958;28;20695;-70
2021/07/27 10:08:28;;;;;;;7.47;6.32;;;23.80;99.90;;;;;;4988981;28;20228;-70
2021/07/27 10:11:06;;;;;;;6.40;5.45;;;23.60;99.90;;;;;;4986621;28;20216;-70
2021/07/27 10:13:34;;;;;;;6.35;5.57;;;23.50;99.90;;;;;;4987731;28;20664;-69
2021/07/27 10:16:02;;;;;;;6.85;5.43;;;23.70;99.90;;;;;;4988949;28;20675;-70
2021/07/27 10:18:32;;;;;;;6.10;5.50;;;23.50;99.90;;;;;;4988894;28;20205;-70
2021/07/27 10:21:23;;;;;;;8.85;6.97;;;24.30;99.90;;;;;;4985323;28;20225;-70
2021/07/27 10:23:50;;;;;;;7.05;5.15;;;24.60;99.90;;;;;;4981736;28;20574;-70
2021/07/27 10:26:26;;;;;;;6.40;5.20;;;25.10;99.90;;;;;;4987795;28;20215;-70
2021/07/27 10:28:54;;;;;;;7.05;5.88;;;24.70;99.90;;;;;;4988568;28;20276;-70
2021/07/27 10:31:31;;;;;;;7.53;6.10;;;25.00;99.90;;;;;;4985935;28;20609;-68
2021/07/27 10:33:58;;;;;;;6.75;6.05;;;25.60;99.90;;;;;;4982701;28;20200;-68
2021/07/27 10:36:31;;;;;;;6.85;5.63;;;25.30;99.90;;;;;;4988072;28;20205;-68
2021/07/27 10:39:10;;;;;;;8.27;5.90;;;25.10;99.90;;;;;;4988377;28;20209;-68
2021/07/27 10:41:39;;;;;;;5.85;5.25;;;24.70;99.90;;;;;;4985791;28;20205;-69
2021/07/27 10:44:10;;;;;;;8.32;5.97;;;25.10;99.90;;;;;;4987030;28;20220;-68
2021/07/27 10:46:39;;;;;;;6.80;6.05;;;24.90;99.90;;;;;;4988737;28;20212;-69
2021/07/27 10:49:06;;;;;;;6.50;5.82;;;24.50;99.90;;;;;;4986362;28;20653;-68
2021/07/27 10:51:47;;;;;;;8.50;7.00;;;24.40;99.90;;;;;;4988921;28;20220;-68
2021/07/27 10:54:15;;;;;;;7.45;6.65;;;24.10;99.90;;;;;;4985176;28;20267;-68
2021/07/27 10:56:58;;;;;;;6.45;5.85;;;24.00;99.90;;;;;;4984164;28;20288;-68
2021/07/27 10:59:26;;;;;;;7.68;5.90;;;24.40;99.90;;;;;;4984722;28;20209;-68
2021/07/27 11:01:54;;;;;;;7.80;6.50;;;24.20;99.90;;;;;;4985790;28;20663;-69
2021/07/27 11:04:27;;;;;;;9.00;6.82;;;24.50;99.90;;;;;;4986430;28;20271;-68
2021/07/27 11:07:06;;;;;;;8.18;6.60;;;24.20;99.90;;;;;;4983090;28;20574;-69
2021/07/27 11:09:33;;;;;;;7.80;6.65;;;24.30;99.90;;;;;;4982596;28;20686;-69
2021/07/27 11:12:00;;;;;;;7.57;6.72;;;25.00;99.90;;;;;;4986303;28;20244;-69
2021/07/27 11:14:27;;;;;;;9.45;7.10;;;25.50;99.90;;;;;;4987848;28;20198;-69
2021/07/27 11:16:53;;;;;;;6.82;5.97;;;26.30;99.90;;;;;;4985121;28;20217;-69
2021/07/27 11:19:28;;;;;;;7.82;5.80;;;26.40;99.90;;;;;;4983587;28;20635;-68
2021/07/27 11:21:58;;;;;;;8.35;5.72;;;26.50;99.90;;;;;;4990228;28;20208;-68
2021/07/27 11:24:27;;;;;;;10.55;6.55;;;26.20;99.90;;;;;;4990972;28;20483;-69
2021/07/27 11:26:55;;;;;;;7.10;5.65;;;25.50;99.90;;;;;;4982809;28;20575;-69
2021/07/27 11:29:23;;;;;;;6.55;5.95;;;25.50;99.90;;;;;;4979025;28;20221;-68
2021/07/27 11:31:51;;;;;;;7.57;5.57;;;25.70;99.90;;;;;;4981182;28;20223;-68
2021/07/27 11:34:27;;;;;;;6.95;5.85;;;26.10;99.90;;;;;;4977109;28;20208;-68
2021/07/27 11:36:57;;;;;;;7.78;5.88;;;26.30;99.90;;;;;;4977206;28;20569;-69
2021/07/27 11:39:23;;;;;;;9.45;6.05;;;26.70;99.90;;;;;;4979626;28;20209;-68
2021/07/27 11:42:01;;;;;;;8.55;5.85;;;26.80;99.90;;;;;;4982613;28;20241;-69
2021/07/27 11:44:28;;;;;;;6.75;5.22;;;27.10;99.90;;;;;;4984851;28;20236;-68
2021/07/27 11:46:55;;;;;;;6.25;5.65;;;26.50;99.90;;;;;;4983833;28;20659;-68
2021/07/27 11:49:22;;;;;;;7.07;5.60;;;26.60;99.90;;;;;;4973975;28;20210;-69
2021/07/27 11:52:00;;;;;;;8.57;5.72;;;26.90;99.90;;;;;;4986455;28;20213;-69
2021/07/27 11:54:28;;;;;;;14.55;10.73;;;26.40;99.90;;;;;;4981466;28;20598;-68
2021/07/27 11:56:55;;;;;;;8.27;5.90;;;26.10;99.90;;;;;;4982875;28;20738;-69
2021/07/27 11:59:26;;;;;;;6.38;5.35;;;25.90;99.90;;;;;;4980651;28;20217;-69
2021/07/27 12:01:53;;;;;;;6.45;5.60;;;26.20;99.90;;;;;;4986631;28;20216;-68
2021/07/27 12:04:20;;;;;;;6.15;5.45;;;26.00;99.90;;;;;;4985338;28;20232;-68
2021/07/27 12:06:47;;;;;;;7.90;5.63;;;25.50;99.90;;;;;;4985621;28;20693;-68
2021/07/27 12:09:15;;;;;;;9.98;6.82;;;25.50;99.90;;;;;;4987445;28;20574;-68
2021/07/27 12:11:44;;;;;;;9.27;7.00;;;25.30;99.90;;;;;;4984498;28;20213;-68
2021/07/27 12:14:11;;;;;;;8.07;5.93;;;25.40;99.90;;;;;;4982630;28;20209;-68
2021/07/27 12:16:38;;;;;;;6.45;5.82;;;25.30;99.90;;;;;;4986136;28;20216;-68
2021/07/27 12:19:05;;;;;;;8.77;5.75;;;25.40;99.90;;;;;;4986877;28;20205;-69
2021/07/27 12:21:32;;;;;;;6.55;5.20;;;25.30;99.90;;;;;;4985514;28;20220;-69
2021/07/27 12:23:59;;;;;;;6.95;5.82;;;25.10;99.90;;;;;;4987092;28;20229;-68
2021/07/27 12:26:26;;;;;;;9.90;6.10;;;25.30;99.90;;;;;;4982696;28;20206;-69
2021/07/27 12:28:54;;;;;;;7.57;6.38;;;25.90;99.90;;;;;;4986168;28;20220;-69
2021/07/27 12:31:21;;;;;;;9.25;5.85;;;26.20;99.90;;;;;;4977987;28;20216;-68
2021/07/27 12:33:48;;;;;;;6.93;6.22;;;27.00;99.90;;;;;;4985686;28;20232;-68
2021/07/27 12:36:15;;;;;;;7.70;5.85;;;26.70;99.90;;;;;;4983651;28;20208;-68
2021/07/27 12:38:42;;;;;;;6.78;5.95;;;26.90;99.90;;;;;;4977818;28;20698;-68
2021/07/27 12:41:09;;;;;;;6.13;5.47;;;27.70;99.90;;;;;;4973170;28;20206;-69
2021/07/27 12:43:35;;;;;;;8.73;6.50;;;27.40;99.90;;;;;;4976128;28;20216;-69
2021/07/27 12:46:04;;;;;;;8.40;6.47;;;27.20;99.90;;;;;;4981152;28;20236;-69
2021/07/27 12:48:32;;;;;;;6.80;6.07;;;27.90;99.90;;;;;;4981510;28;20220;-68
2021/07/27 12:50:59;;;;;;;7.00;6.13;;;28.00;99.90;;;;;;4975055;28;20205;-69
2021/07/27 12:53:26;;;;;;;7.43;6.63;;;28.00;99.90;;;;;;4986687;28;20667;-68
2021/07/27 12:55:57;;;;;;;7.85;6.13;;;27.40;99.90;;;;;;4986581;28;20217;-68
2021/07/27 12:58:24;;;;;;;8.30;6.47;;;27.60;99.90;;;;;;4985592;28;20279;-69
2021/07/27 13:00:51;;;;;;;8.10;6.75;;;28.00;99.90;;;;;;4987129;28;20201;-68
2021/07/27 13:03:19;;;;;;;9.05;6.40;;;27.40;99.90;;;;;;4987379;28;20675;-68
2021/07/27 13:05:46;;;;;;;8.07;6.43;;;27.80;99.90;;;;;;4987691;28;20679;-69
2021/07/27 13:08:13;;;;;;;8.52;6.75;;;27.60;99.90;;;;;;4988087;28;20208;-68